createdAt,value
2018-12-08T00:00:29.125Z,87.50
2018-12-08T00:02:57.392Z,87.60
2018-12-08T00:05:25.670Z,87.30
2018-12-08T00:07:53.873Z,87.60
2018-12-08T00:10:22.071Z,87.80
2018-12-08T00:12:50.293Z,88.50
2018-12-08T00:15:18.521Z,87.40
2018-12-08T00:17:46.802Z,85.90
2018-12-08T00:20:15.002Z,86.00
2018-12-08T00:22:43.185Z,85.50
2018-12-08T00:25:11.377Z,85.80
2018-12-08T00:27:40.117Z,86.30
2018-12-08T00:31:18.556Z,86.40
2018-12-08T00:33:46.782Z,86.30
2018-12-08T00:36:15.083Z,86.30
2018-12-08T00:38:43.381Z,86.70
2018-12-08T00:41:11.585Z,86.60
2018-12-08T00:43:39.781Z,86.40
2018-12-08T00:46:07.978Z,86.10
2018-12-08T00:48:36.160Z,86.30
2018-12-08T00:51:04.352Z,86.20
2018-12-08T00:53:32.536Z,86.50
2018-12-08T00:56:00.925Z,86.40
2018-12-08T00:58:29.116Z,86.70
2018-12-08T01:00:57.304Z,86.90
2018-12-08T01:03:25.494Z,86.80
2018-12-08T01:05:53.772Z,86.60
2018-12-08T01:08:21.968Z,86.40
2018-12-08T01:10:50.302Z,86.00
2018-12-08T01:13:18.497Z,86.10
2018-12-08T01:15:46.697Z,86.30
2018-12-08T01:18:14.881Z,86.30
2018-12-08T01:20:43.164Z,85.80
2018-12-08T01:23:11.340Z,85.80
2018-12-08T01:25:39.528Z,86.10
2018-12-08T01:28:07.806Z,85.80
2018-12-08T01:30:35.989Z,85.60
2018-12-08T01:33:04.271Z,85.50
2018-12-08T01:35:32.564Z,86.00
2018-12-08T01:38:01.024Z,86.20
2018-12-08T01:40:29.208Z,86.50
2018-12-08T01:42:57.568Z,86.90
2018-12-08T01:45:26.483Z,86.90
2018-12-08T01:47:54.682Z,87.20
2018-12-08T01:50:23.070Z,87.20
2018-12-08T01:52:51.338Z,87.50
2018-12-08T01:55:19.616Z,87.60
2018-12-08T01:57:47.808Z,86.50
2018-12-08T02:00:16.168Z,86.40
2018-12-08T02:02:44.352Z,86.60
2018-12-08T02:05:12.541Z,86.20
2018-12-08T02:07:40.728Z,85.70
2018-12-08T02:10:09.032Z,85.40
2018-12-08T02:12:37.216Z,85.30
2018-12-08T02:15:05.928Z,85.00
2018-12-08T02:17:34.128Z,85.20
2018-12-08T02:20:02.413Z,85.40
2018-12-08T02:22:30.633Z,85.80
2018-12-08T02:24:59.229Z,87.10
2018-12-08T02:27:27.420Z,87.90
2018-12-08T02:29:55.689Z,87.70
2018-12-08T02:32:23.886Z,87.20
2018-12-08T02:34:52.174Z,87.20
2018-12-08T02:37:20.453Z,86.60
2018-12-08T02:39:48.640Z,85.80
2018-12-08T02:42:17.035Z,85.30
2018-12-08T02:44:45.218Z,85.40
2018-12-08T02:47:13.513Z,85.20
2018-12-08T02:49:41.689Z,85.30
2018-12-08T02:52:09.885Z,85.10
2018-12-08T02:54:38.063Z,85.40
2018-12-08T02:57:06.256Z,85.20
2018-12-08T02:59:34.477Z,85.50
2018-12-08T03:02:02.681Z,85.20
2018-12-08T03:04:30.967Z,85.30
2018-12-08T03:06:59.158Z,85.20
2018-12-08T03:09:27.340Z,85.20
2018-12-08T03:11:55.536Z,85.60
2018-12-08T03:14:24.043Z,85.30
2018-12-08T03:16:52.333Z,85.60
2018-12-08T03:19:20.516Z,86.00
2018-12-08T03:21:48.727Z,86.30
2018-12-08T03:24:16.993Z,86.70
2018-12-08T03:26:45.281Z,87.50
2018-12-08T03:29:13.460Z,88.10
2018-12-08T03:31:41.661Z,88.50
2018-12-08T03:34:09.955Z,89.60
2018-12-08T03:36:38.174Z,89.70
2018-12-08T03:39:07.880Z,90.50
2018-12-08T03:41:36.182Z,90.70
2018-12-08T03:44:04.541Z,90.90
2018-12-08T03:46:32.827Z,90.80
2018-12-08T03:49:01.096Z,91.10
2018-12-08T03:51:29.388Z,91.40
2018-12-08T03:53:57.839Z,91.40
2018-12-08T03:56:26.127Z,91.80
2018-12-08T03:58:54.404Z,91.80
2018-12-08T04:01:22.816Z,92.20
2018-12-08T04:03:51.156Z,92.20
2018-12-08T04:06:19.349Z,92.60
2018-12-08T04:08:47.624Z,93.40
2018-12-08T04:11:15.841Z,93.60
2018-12-08T04:13:44.089Z,93.90
2018-12-08T04:16:12.364Z,93.90
2018-12-08T04:18:40.644Z,93.90
2018-12-08T04:21:08.827Z,93.90
2018-12-08T04:23:37.108Z,93.80
2018-12-08T04:26:05.290Z,93.40
2018-12-08T04:28:33.485Z,93.40
2018-12-08T04:31:01.973Z,93.30
2018-12-08T04:33:30.161Z,92.90
2018-12-08T04:35:58.337Z,92.70
2018-12-08T04:38:26.862Z,92.70
2018-12-08T04:40:55.321Z,92.00
2018-12-08T04:43:23.563Z,91.70
2018-12-08T04:45:51.835Z,91.70
2018-12-08T04:48:20.058Z,91.10
2018-12-08T04:50:48.257Z,91.20
2018-12-08T04:53:16.459Z,91.20
2018-12-08T04:55:44.648Z,91.20
2018-12-08T04:58:12.925Z,90.80
2018-12-08T05:00:41.109Z,90.80
2018-12-08T05:03:09.296Z,90.60
2018-12-08T05:05:37.476Z,90.70
2018-12-08T05:08:05.672Z,90.30
2018-12-08T05:10:33.864Z,90.20
2018-12-08T05:13:02.054Z,90.00
2018-12-08T05:15:30.232Z,90.30
2018-12-08T05:17:58.425Z,90.20
2018-12-08T05:20:26.600Z,90.30
2018-12-08T05:22:54.916Z,90.50
2018-12-08T05:25:23.142Z,90.20
2018-12-08T05:27:51.345Z,90.20
2018-12-08T05:30:19.540Z,90.00
2018-12-08T05:32:47.821Z,89.90
2018-12-08T05:35:16.004Z,89.90
2018-12-08T05:37:44.203Z,90.10
2018-12-08T05:40:12.972Z,89.60
2018-12-08T05:42:41.167Z,88.90
2018-12-08T05:45:09.532Z,88.80
2018-12-08T05:47:37.720Z,89.00
2018-12-08T05:50:07.692Z,88.50
2018-12-08T05:52:35.881Z,88.70
2018-12-08T05:55:04.456Z,88.50
2018-12-08T05:57:32.656Z,88.10
2018-12-08T06:00:00.845Z,88.60
2018-12-08T06:02:29.074Z,87.90
2018-12-08T06:04:57.269Z,88.00
2018-12-08T06:07:25.473Z,87.30
2018-12-08T06:09:53.664Z,87.30
2018-12-08T06:12:21.857Z,87.60
2018-12-08T06:14:50.038Z,87.20
2018-12-08T06:17:18.229Z,87.30
2018-12-08T06:19:46.408Z,87.00
2018-12-08T06:22:14.617Z,88.10
2018-12-08T06:24:43.096Z,88.00
2018-12-08T06:27:17.357Z,87.30
2018-12-08T06:29:46.354Z,87.30
2018-12-08T06:32:14.535Z,87.60
2018-12-08T06:34:42.734Z,88.10
2018-12-08T06:37:10.957Z,87.70
2018-12-08T06:39:39.169Z,87.70
2018-12-08T06:42:07.370Z,88.00
2018-12-08T06:44:35.650Z,87.90
2018-12-08T06:47:03.837Z,88.20
2018-12-08T06:49:32.026Z,88.10
2018-12-08T06:52:00.212Z,88.50
2018-12-08T06:54:28.408Z,87.70
2018-12-08T06:56:56.580Z,87.70
2018-12-08T06:59:24.779Z,88.20
2018-12-08T07:01:53.332Z,88.10
2018-12-08T07:04:21.616Z,88.40
2018-12-08T07:06:49.805Z,87.80
2018-12-08T07:09:18.070Z,87.70
2018-12-08T07:11:46.257Z,87.50
2018-12-08T07:14:14.462Z,87.30
2018-12-08T07:16:42.751Z,87.00
2018-12-08T07:19:10.953Z,86.90
2018-12-08T07:21:39.170Z,86.90
2018-12-08T07:24:09.052Z,86.90
2018-12-08T07:26:37.233Z,86.40
2018-12-08T07:29:05.605Z,86.50
2018-12-08T07:31:34.178Z,86.30
2018-12-08T07:34:02.364Z,86.70
2018-12-08T07:36:30.615Z,86.10
2018-12-08T07:38:58.901Z,85.70
2018-12-08T07:41:27.188Z,85.50
2018-12-08T07:43:55.384Z,85.70
2018-12-08T07:46:23.572Z,85.60
2018-12-08T07:48:52.103Z,85.70
2018-12-08T07:51:20.279Z,85.10
2018-12-08T07:53:48.832Z,85.40
2018-12-08T07:56:17.013Z,85.60
2018-12-08T07:58:45.218Z,85.80
2018-12-08T08:01:13.435Z,85.70
2018-12-08T08:03:41.641Z,85.30
2018-12-08T08:06:09.819Z,85.20
2018-12-08T08:08:38.329Z,85.70
2018-12-08T08:11:06.516Z,85.00
2018-12-08T08:13:34.704Z,85.00
2018-12-08T08:16:02.893Z,84.10
2018-12-08T08:18:31.109Z,84.30
2018-12-08T08:20:59.297Z,84.70
2018-12-08T08:23:27.491Z,84.30
2018-12-08T08:25:55.668Z,83.80
2018-12-08T08:28:23.898Z,84.20
2018-12-08T08:30:52.109Z,83.80
2018-12-08T08:33:20.305Z,84.50
2018-12-08T08:35:48.518Z,83.80
2018-12-08T08:38:16.860Z,84.30
2018-12-08T08:40:45.049Z,84.20
2018-12-08T08:43:13.246Z,84.20
2018-12-08T08:45:41.497Z,84.50
2018-12-08T08:48:09.721Z,84.10
2018-12-08T08:50:37.917Z,84.00
2018-12-08T08:53:06.536Z,84.10
2018-12-08T08:55:34.724Z,84.00
2018-12-08T08:58:03.089Z,82.90
2018-12-08T09:00:31.276Z,82.70
2018-12-08T09:02:59.457Z,82.60
2018-12-08T09:05:27.650Z,82.00
2018-12-08T09:07:55.829Z,82.00
2018-12-08T09:10:24.030Z,81.10
2018-12-08T09:12:52.333Z,81.90
2018-12-08T09:15:20.704Z,82.00
2018-12-08T09:17:49.126Z,81.20
2018-12-08T09:20:17.316Z,81.60
2018-12-08T09:22:45.542Z,80.90
2018-12-08T09:25:13.770Z,81.10
2018-12-08T09:27:41.981Z,80.50
2018-12-08T09:30:11.264Z,80.20
2018-12-08T09:32:39.685Z,80.00
2018-12-08T09:35:08.057Z,80.30
2018-12-08T09:37:36.236Z,79.30
2018-12-08T09:40:05.669Z,79.50
2018-12-08T09:42:33.949Z,79.60
2018-12-08T09:45:02.134Z,79.70
2018-12-08T09:47:30.346Z,79.70
2018-12-08T09:49:58.512Z,78.60
2018-12-08T09:52:26.796Z,78.40
2018-12-08T09:54:55.008Z,78.20
2018-12-08T09:57:23.200Z,79.40
2018-12-08T09:59:51.390Z,78.40
2018-12-08T10:02:19.581Z,78.10
2018-12-08T10:04:47.764Z,77.30
2018-12-08T10:07:16.165Z,77.70
2018-12-08T10:09:44.403Z,76.90
2018-12-08T10:12:12.700Z,77.30
2018-12-08T10:14:41.109Z,77.50
2018-12-08T10:17:09.305Z,77.30
2018-12-08T10:19:37.488Z,77.60
2018-12-08T10:22:05.685Z,77.90
2018-12-08T10:24:34.104Z,77.90
2018-12-08T10:27:02.618Z,77.80
2018-12-08T10:29:31.430Z,77.10
2018-12-08T10:31:59.616Z,77.30
2018-12-08T10:34:28.067Z,77.60
2018-12-08T10:36:56.364Z,76.60
2018-12-08T10:39:24.697Z,76.90
2018-12-08T10:41:52.888Z,76.70
2018-12-08T10:44:21.110Z,77.00
2018-12-08T10:46:49.774Z,76.20
2018-12-08T10:49:18.130Z,76.20
2018-12-08T10:51:46.401Z,75.90
2018-12-08T10:54:14.580Z,76.20
2018-12-08T10:56:43.583Z,76.50
2018-12-08T10:59:11.761Z,76.80
2018-12-08T11:01:45.461Z,76.90
2018-12-08T11:04:14.432Z,77.00
2018-12-08T11:06:42.621Z,76.10
2018-12-08T11:09:10.981Z,76.70
2018-12-08T11:11:39.201Z,76.80
2018-12-08T11:14:07.436Z,75.70
2018-12-08T11:16:35.643Z,75.60
2018-12-08T11:19:04.048Z,75.50
2018-12-08T11:21:32.338Z,75.60
2018-12-08T11:24:00.544Z,75.70
2018-12-08T11:26:28.813Z,76.00
2018-12-08T11:28:57.200Z,75.90
2018-12-08T11:31:26.338Z,76.20
2018-12-08T11:33:54.669Z,74.90
2018-12-08T11:36:22.989Z,75.30
2018-12-08T11:38:51.546Z,74.50
2018-12-08T11:41:19.925Z,74.70
2018-12-08T11:43:48.116Z,74.50
2018-12-08T11:46:16.344Z,74.20
2018-12-08T11:48:44.648Z,74.00
2018-12-08T11:51:12.861Z,74.30
2018-12-08T11:53:41.514Z,74.50
2018-12-08T11:56:10.360Z,74.70
2018-12-08T11:58:40.926Z,74.80
2018-12-08T12:01:09.294Z,75.00
2018-12-08T12:03:37.484Z,74.30
2018-12-08T12:06:05.966Z,74.70
2018-12-08T12:08:34.172Z,74.50
2018-12-08T12:11:02.369Z,74.50
2018-12-08T12:13:30.573Z,73.50
2018-12-08T12:15:58.749Z,74.00
2018-12-08T12:18:26.937Z,74.60
2018-12-08T12:20:55.257Z,74.30
2018-12-08T12:23:23.486Z,74.30
2018-12-08T12:25:51.857Z,74.80
2018-12-08T12:28:20.065Z,74.70
2018-12-08T12:30:48.249Z,74.50
2018-12-08T12:33:16.441Z,74.60
2018-12-08T12:35:44.625Z,74.70
2018-12-08T12:38:12.828Z,74.30
2018-12-08T12:40:41.025Z,74.60
2018-12-08T12:43:09.216Z,74.90
2018-12-08T12:45:37.493Z,73.90
2018-12-08T12:48:05.730Z,74.20
2018-12-08T12:50:33.907Z,74.10
2018-12-08T12:53:02.098Z,74.30
2018-12-08T12:55:30.289Z,74.20
2018-12-08T12:57:58.480Z,74.10
2018-12-08T13:00:26.661Z,74.70
2018-12-08T13:02:55.132Z,75.40
2018-12-08T13:05:23.356Z,74.60
2018-12-08T13:07:51.560Z,74.80
2018-12-08T13:10:19.761Z,74.80
2018-12-08T13:12:47.968Z,74.90
2018-12-08T13:15:16.181Z,75.00
2018-12-08T13:17:44.409Z,75.00
2018-12-08T13:20:12.607Z,75.20
2018-12-08T13:22:40.929Z,74.80
2018-12-08T13:25:20.516Z,74.80
2018-12-08T13:27:48.912Z,75.50
2018-12-08T13:30:17.231Z,75.50
2018-12-08T13:32:45.524Z,75.80
2018-12-08T13:35:25.348Z,75.70
2018-12-08T13:37:53.549Z,75.90
2018-12-08T13:40:22.510Z,75.50
2018-12-08T13:42:51.934Z,75.70
2018-12-08T13:45:21.289Z,75.90
2018-12-08T13:47:49.986Z,76.00
2018-12-08T13:50:19.201Z,75.80
2018-12-08T13:52:47.409Z,75.80
2018-12-08T13:55:15.774Z,76.00
2018-12-08T13:57:46.978Z,76.30
2018-12-08T14:00:15.261Z,76.30
2018-12-08T14:02:43.711Z,76.50
2018-12-08T14:05:11.908Z,76.70
2018-12-08T14:07:40.107Z,76.70
2018-12-08T14:10:09.120Z,76.50
2018-12-08T14:12:37.390Z,76.60
2018-12-08T14:15:06.141Z,76.80
2018-12-08T14:17:34.333Z,77.00
2018-12-08T14:20:13.928Z,76.90
2018-12-08T14:22:42.145Z,76.90
2018-12-08T14:25:10.348Z,77.10
2018-12-08T14:27:38.557Z,77.80
2018-12-08T14:30:08.744Z,77.50
2018-12-08T14:32:37.696Z,77.50
2018-12-08T14:35:06.101Z,77.70
2018-12-08T14:37:34.296Z,78.60
2018-12-08T14:40:02.624Z,78.70
2018-12-08T14:42:30.816Z,79.40
2018-12-08T14:44:59.018Z,79.10
2018-12-08T14:47:27.235Z,79.40
2018-12-08T14:49:55.425Z,79.60
2018-12-08T14:52:23.613Z,80.00
2018-12-08T14:54:51.838Z,80.10
2018-12-08T14:57:20.057Z,80.20
2018-12-08T14:59:48.386Z,80.60
2018-12-08T15:02:16.605Z,80.90
2018-12-08T15:04:45.016Z,81.80
2018-12-08T15:07:13.376Z,81.90
2018-12-08T15:09:41.629Z,81.90
2018-12-08T15:12:09.869Z,82.90
2018-12-08T15:14:38.097Z,82.90
2018-12-08T15:17:06.433Z,83.10
2018-12-08T15:19:34.705Z,83.20
2018-12-08T15:22:02.984Z,83.20
2018-12-08T15:24:31.176Z,83.30
2018-12-08T15:26:59.506Z,83.40
2018-12-08T15:29:27.956Z,84.00
2018-12-08T15:31:56.230Z,83.50
2018-12-08T15:34:24.452Z,83.80
2018-12-08T15:36:52.728Z,83.50
2018-12-08T15:39:21.115Z,83.40
2018-12-08T15:41:49.463Z,83.60
2018-12-08T15:44:17.932Z,83.50
2018-12-08T15:46:46.144Z,83.60
2018-12-08T15:49:14.452Z,83.50
2018-12-08T15:51:42.783Z,83.20
2018-12-08T15:54:11.089Z,83.20
2018-12-08T15:56:39.326Z,83.50
2018-12-08T15:59:07.517Z,84.00
2018-12-08T16:01:35.722Z,83.90
2018-12-08T16:04:04.156Z,84.00
2018-12-08T16:06:32.556Z,83.80
2018-12-08T16:09:01.016Z,84.00
2018-12-08T16:11:29.224Z,84.40
2018-12-08T16:13:57.405Z,84.40
2018-12-08T16:16:25.597Z,84.80
2018-12-08T16:18:53.776Z,85.10
2018-12-08T16:21:22.065Z,85.20
2018-12-08T16:23:50.373Z,85.00
2018-12-08T16:26:18.664Z,85.00
2018-12-08T16:28:46.849Z,85.00
2018-12-08T16:31:15.036Z,85.00
2018-12-08T16:33:43.481Z,85.20
2018-12-08T16:36:11.809Z,85.00
2018-12-08T16:38:40.026Z,85.10
2018-12-08T16:41:08.213Z,85.20
2018-12-08T16:43:36.404Z,85.40
2018-12-08T16:46:04.773Z,85.40
2018-12-08T16:48:32.960Z,85.40
2018-12-08T16:51:01.152Z,86.10
2018-12-08T16:53:29.332Z,86.50
2018-12-08T16:55:57.616Z,86.80
2018-12-08T16:58:25.896Z,86.30
2018-12-08T17:00:54.285Z,86.60
2018-12-08T17:03:22.565Z,86.70
2018-12-08T17:05:50.761Z,86.80
2018-12-08T17:08:19.006Z,87.10
2018-12-08T17:10:47.424Z,87.00
2018-12-08T17:13:15.728Z,87.00
2018-12-08T17:15:43.921Z,87.20
2018-12-08T17:18:12.107Z,87.30
2018-12-08T17:20:40.312Z,88.30
2018-12-08T17:23:08.533Z,88.30
2018-12-08T17:25:36.759Z,88.00
2018-12-08T17:28:06.066Z,88.30
2018-12-08T17:30:34.494Z,88.20
2018-12-08T17:33:02.988Z,88.30
2018-12-08T17:35:31.189Z,88.50
2018-12-08T17:37:59.464Z,88.40
2018-12-08T17:40:27.653Z,88.70
2018-12-08T17:42:56.672Z,88.70
2018-12-08T17:45:25.040Z,88.70
2018-12-08T17:47:53.228Z,89.00
2018-12-08T17:50:21.508Z,89.10
2018-12-08T17:52:49.692Z,88.90
2018-12-08T17:55:17.906Z,88.90
2018-12-08T17:57:46.132Z,89.00
2018-12-08T18:00:14.599Z,88.80
2018-12-08T18:02:42.981Z,88.90
2018-12-08T18:05:11.495Z,89.10
2018-12-08T18:07:40.743Z,88.50
2018-12-08T18:10:09.157Z,88.20
2018-12-08T18:12:37.355Z,88.20
2018-12-08T18:15:05.923Z,88.00
2018-12-08T18:17:34.121Z,87.70
2018-12-08T18:20:02.485Z,87.60
2018-12-08T18:22:30.678Z,87.30
2018-12-08T18:24:59.177Z,87.40
2018-12-08T18:27:27.369Z,87.30
2018-12-08T18:29:55.552Z,87.20
2018-12-08T18:32:23.760Z,87.10
2018-12-08T18:34:51.944Z,87.10
2018-12-08T18:37:20.624Z,86.90
2018-12-08T18:39:48.816Z,86.50
2018-12-08T18:42:17.009Z,86.50
2018-12-08T18:44:45.290Z,86.20
2018-12-08T18:47:13.526Z,86.20
2018-12-08T18:49:41.741Z,85.70
2018-12-08T18:52:09.932Z,85.60
2018-12-08T18:54:38.120Z,85.60
2018-12-08T18:57:06.322Z,84.90
2018-12-08T18:59:34.604Z,85.10
2018-12-08T19:02:02.965Z,84.70
2018-12-08T19:04:31.147Z,84.80
2018-12-08T19:06:59.432Z,84.80
2018-12-08T19:09:27.709Z,84.30
2018-12-08T19:11:55.916Z,84.10
2018-12-08T19:14:24.114Z,84.10
2018-12-08T19:16:52.429Z,84.00
2018-12-08T19:19:20.705Z,84.40
2018-12-08T19:21:48.985Z,84.10
2018-12-08T19:24:17.169Z,83.90
2018-12-08T19:26:45.396Z,83.70
2018-12-08T19:29:13.609Z,84.00
2018-12-08T19:31:42.007Z,83.60
2018-12-08T19:34:10.201Z,83.80
2018-12-08T19:36:38.576Z,83.70
2018-12-08T19:39:07.280Z,83.00
2018-12-08T19:41:35.473Z,83.10
2018-12-08T19:44:03.765Z,83.20
2018-12-08T19:46:32.097Z,82.90
2018-12-08T19:49:00.279Z,83.00
2018-12-08T19:51:28.529Z,82.60
2018-12-08T19:53:56.717Z,82.60
2018-12-08T19:56:24.996Z,82.70
2018-12-08T19:58:53.183Z,82.60
2018-12-08T20:01:21.368Z,82.20
2018-12-08T20:03:49.544Z,82.10
2018-12-08T20:06:17.736Z,82.10
2018-12-08T20:08:46.051Z,82.30
2018-12-08T20:11:14.328Z,82.30
2018-12-08T20:13:42.674Z,82.30
2018-12-08T20:16:10.973Z,82.50
2018-12-08T20:18:39.456Z,82.60
2018-12-08T20:21:07.648Z,82.30
2018-12-08T20:23:35.840Z,82.30
2018-12-08T20:26:04.245Z,82.50
2018-12-08T20:28:32.440Z,82.60
2018-12-08T20:31:00.625Z,82.80
2018-12-08T20:33:29.126Z,82.80
2018-12-08T20:35:57.317Z,82.80
2018-12-08T20:38:25.608Z,82.70
2018-12-08T20:40:53.788Z,82.50
2018-12-08T20:43:21.982Z,82.60
2018-12-08T20:45:50.168Z,82.70
2018-12-08T20:48:18.418Z,82.70
2018-12-08T20:50:46.632Z,82.60
2018-12-08T20:53:15.117Z,82.70
2018-12-08T20:55:43.421Z,82.60
2018-12-08T20:58:11.613Z,82.60
2018-12-08T21:00:39.805Z,82.70
2018-12-08T21:03:08.009Z,83.00
2018-12-08T21:05:36.206Z,83.00
2018-12-08T21:08:04.584Z,82.90
2018-12-08T21:10:32.837Z,82.90
2018-12-08T21:13:01.013Z,83.00
2018-12-08T21:15:29.197Z,83.10
2018-12-08T21:17:57.391Z,83.10
2018-12-08T21:20:25.672Z,83.30
2018-12-08T21:22:53.907Z,83.50
2018-12-08T21:25:22.080Z,83.60
2018-12-08T21:27:50.282Z,84.10
2018-12-08T21:30:18.487Z,84.50
2018-12-08T21:32:46.707Z,84.40
2018-12-08T21:35:14.910Z,83.70
2018-12-08T21:37:43.104Z,84.00
2018-12-08T21:40:22.789Z,84.00
2018-12-08T21:42:50.981Z,84.30
2018-12-08T21:45:19.165Z,83.70
2018-12-08T21:47:47.361Z,83.60
2018-12-08T21:50:15.625Z,83.70
2018-12-08T21:52:43.827Z,83.60
2018-12-08T21:55:12.439Z,83.80
2018-12-08T21:57:40.645Z,84.00
2018-12-08T22:00:09.152Z,83.90
2018-12-08T22:02:37.340Z,83.80
2018-12-08T22:05:05.989Z,83.90
2018-12-08T22:07:34.231Z,83.90
2018-12-08T22:10:02.453Z,84.20
2018-12-08T22:12:30.758Z,84.20
2018-12-08T22:14:59.936Z,84.70
2018-12-08T22:17:28.472Z,84.70
2018-12-08T22:19:56.902Z,85.20
2018-12-08T22:22:25.192Z,85.60
2018-12-08T22:24:53.459Z,86.00
2018-12-08T22:27:21.652Z,86.40
2018-12-08T22:29:49.832Z,88.30
2018-12-08T22:32:18.031Z,90.20
2018-12-08T22:34:46.209Z,90.30
2018-12-08T22:37:15.264Z,90.10
2018-12-08T22:39:43.444Z,90.00
2018-12-08T22:42:11.638Z,89.50
2018-12-08T22:44:39.912Z,89.40
2018-12-08T22:47:08.188Z,89.00
2018-12-08T22:49:36.405Z,89.10
2018-12-08T22:52:04.747Z,88.90
2018-12-08T22:54:33.031Z,88.80
2018-12-08T22:57:01.216Z,88.70
2018-12-08T22:59:29.409Z,88.50
2018-12-08T23:01:57.760Z,88.70
2018-12-08T23:04:26.248Z,88.50
2018-12-08T23:07:02.550Z,88.80
2018-12-08T23:09:30.912Z,88.40
2018-12-08T23:11:59.161Z,88.50
2018-12-08T23:14:27.625Z,88.70
2018-12-08T23:16:55.805Z,88.90
2018-12-08T23:19:24.176Z,88.80
2018-12-08T23:21:52.364Z,88.80
2018-12-08T23:24:20.780Z,89.00
2018-12-08T23:26:49.110Z,89.20
2018-12-08T23:29:17.330Z,89.20
2018-12-08T23:31:45.624Z,89.30
2018-12-08T23:34:13.865Z,89.30
2018-12-08T23:36:42.096Z,89.10
2018-12-08T23:39:10.480Z,89.00
2018-12-08T23:41:38.652Z,89.10
2018-12-08T23:44:06.944Z,89.10
2018-12-08T23:46:35.124Z,89.60
2018-12-08T23:49:10.960Z,90.30
2018-12-08T23:51:33.864Z,91.10
2018-12-08T23:54:02.308Z,92.40
2018-12-08T23:56:30.496Z,92.40
2018-12-08T23:58:59.385Z,92.50
